createdAt,value
2019-03-16T00:02:50.308Z,10.00
2019-03-16T00:08:56.138Z,10.03
2019-03-16T00:15:02.260Z,10.06
2019-03-16T00:21:08.010Z,10.05
2019-03-16T00:27:13.906Z,10.06
2019-03-16T00:33:19.722Z,10.08
2019-03-16T00:39:25.516Z,10.09
2019-03-16T00:45:31.884Z,10.10
2019-03-16T00:51:37.726Z,10.12
2019-03-16T00:57:43.583Z,10.15
2019-03-16T01:03:49.315Z,10.12
2019-03-16T01:09:55.046Z,10.11
2019-03-16T01:16:00.840Z,10.12
2019-03-16T01:22:06.718Z,10.13
2019-03-16T01:28:12.532Z,10.09
2019-03-16T01:34:18.342Z,10.06
2019-03-16T01:40:24.200Z,10.04
2019-03-16T01:46:30.005Z,10.00
2019-03-16T01:52:35.805Z,9.99
2019-03-16T01:58:41.620Z,9.93
2019-03-16T02:04:47.329Z,9.93
2019-03-16T02:10:53.238Z,9.93
2019-03-16T02:16:59.209Z,9.93
2019-03-16T02:23:05.082Z,9.91
2019-03-16T02:29:11.189Z,9.89
2019-03-16T02:35:17.025Z,9.89
2019-03-16T02:41:23.051Z,9.83
2019-03-16T02:47:28.823Z,9.77
2019-03-16T02:53:34.589Z,9.71
2019-03-16T02:59:40.337Z,9.67
2019-03-16T03:05:46.176Z,9.65
2019-03-16T03:11:51.926Z,9.59
2019-03-16T03:17:57.649Z,9.54
2019-03-16T03:24:03.447Z,9.52
2019-03-16T03:30:10.110Z,9.48
2019-03-16T03:36:15.895Z,9.49
2019-03-16T03:42:21.677Z,9.45
2019-03-16T03:48:27.692Z,9.38
2019-03-16T03:54:33.495Z,9.36
2019-03-16T04:00:39.340Z,9.27
2019-03-16T04:06:45.213Z,9.25
2019-03-16T04:12:50.984Z,9.23
2019-03-16T04:18:56.701Z,9.20
2019-03-16T04:25:02.558Z,9.27
2019-03-16T04:31:08.335Z,9.24
2019-03-16T04:37:14.393Z,9.21
2019-03-16T04:43:20.175Z,9.20
2019-03-16T04:49:26.213Z,9.17
2019-03-16T04:55:31.974Z,9.13
2019-03-16T05:01:37.675Z,9.10
2019-03-16T05:07:43.447Z,9.09
2019-03-16T05:13:49.248Z,9.10
2019-03-16T05:19:55.007Z,9.13
2019-03-16T05:26:00.749Z,9.11
2019-03-16T05:32:06.763Z,9.11
2019-03-16T05:38:12.462Z,9.17
2019-03-16T05:44:18.222Z,9.11
2019-03-16T05:50:23.896Z,9.08
2019-03-16T05:56:29.654Z,9.10
2019-03-16T06:02:35.501Z,9.12
2019-03-16T06:08:41.314Z,9.13
2019-03-16T06:14:47.042Z,9.06
2019-03-16T06:20:52.860Z,9.06
2019-03-16T06:26:58.714Z,9.04
2019-03-16T06:33:04.512Z,9.00
2019-03-16T06:39:10.406Z,9.01
2019-03-16T06:45:17.109Z,9.01
2019-03-16T06:51:23.286Z,8.96
2019-03-16T06:57:29.037Z,8.99
2019-03-16T07:03:34.903Z,9.02
2019-03-16T07:09:40.978Z,9.09
2019-03-16T07:15:46.999Z,9.09
2019-03-16T07:21:52.819Z,9.15
2019-03-16T07:27:58.608Z,9.23
2019-03-16T07:34:04.454Z,9.31
2019-03-16T07:40:10.636Z,9.46
2019-03-16T07:46:16.518Z,9.61
2019-03-16T07:52:22.379Z,9.77
2019-03-16T07:58:28.247Z,10.00
2019-03-16T08:04:33.991Z,10.27
2019-03-16T08:10:40.307Z,10.52
2019-03-16T08:16:46.423Z,10.76
2019-03-16T08:22:52.499Z,10.88
2019-03-16T08:28:59.314Z,10.90
2019-03-16T08:35:05.580Z,10.95
2019-03-16T08:41:11.299Z,10.98
2019-03-16T08:47:17.559Z,10.97
2019-03-16T08:53:23.445Z,10.97
2019-03-16T08:59:29.233Z,10.98
2019-03-16T09:05:35.139Z,11.00
2019-03-16T09:11:41.021Z,11.08
2019-03-16T09:17:47.032Z,11.12
2019-03-16T09:23:52.839Z,11.17
2019-03-16T09:29:58.647Z,11.24
2019-03-16T09:36:04.449Z,11.50
2019-03-16T09:42:09.625Z,11.65
2019-03-16T09:48:15.565Z,11.66
2019-03-16T09:54:21.321Z,11.68
2019-03-16T10:00:27.156Z,11.75
2019-03-16T10:06:33.232Z,11.81
2019-03-16T10:12:39.030Z,11.77
2019-03-16T10:18:45.021Z,11.77
2019-03-16T10:24:50.907Z,11.79
2019-03-16T10:30:56.794Z,11.83
2019-03-16T10:37:02.582Z,11.88
2019-03-16T10:43:08.560Z,11.98
2019-03-16T10:49:14.398Z,12.10
2019-03-16T10:55:20.188Z,12.32
2019-03-16T11:01:26.234Z,12.61
2019-03-16T11:07:32.238Z,12.85
2019-03-16T11:13:38.093Z,13.00
2019-03-16T11:19:43.935Z,12.88
2019-03-16T11:25:50.016Z,12.77
2019-03-16T11:31:55.915Z,12.69
2019-03-16T11:38:01.644Z,12.57
2019-03-16T11:44:07.372Z,12.54
2019-03-16T11:50:13.321Z,12.53
2019-03-16T11:56:19.108Z,12.49
2019-03-16T12:02:24.859Z,12.49
2019-03-16T12:08:32.447Z,12.43
2019-03-16T12:14:38.275Z,12.27
2019-03-16T12:20:44.211Z,12.28
2019-03-16T12:26:49.966Z,12.32
2019-03-16T12:32:55.761Z,12.36
2019-03-16T12:39:01.642Z,12.37
2019-03-16T12:45:10.938Z,12.36
2019-03-16T12:51:16.970Z,12.34
2019-03-16T12:57:22.744Z,12.37
2019-03-16T13:03:28.576Z,12.29
2019-03-16T13:09:34.401Z,12.23
2019-03-16T13:15:40.210Z,12.23
2019-03-16T13:21:46.050Z,12.26
2019-03-16T13:27:51.783Z,12.20
2019-03-16T13:33:57.835Z,12.29
2019-03-16T13:40:03.670Z,12.36
2019-03-16T13:46:10.178Z,12.35
2019-03-16T13:52:16.067Z,12.38
2019-03-16T13:58:21.794Z,12.37
2019-03-16T14:04:27.578Z,12.43
2019-03-16T14:10:33.312Z,12.55
2019-03-16T14:16:39.199Z,12.60
2019-03-16T14:22:47.464Z,12.55
2019-03-16T14:28:53.454Z,12.68
2019-03-16T14:34:59.214Z,12.59
2019-03-16T14:41:05.142Z,12.48
2019-03-16T14:47:10.861Z,12.47
2019-03-16T14:53:16.919Z,12.42
2019-03-16T14:59:22.762Z,12.44
2019-03-16T15:05:28.675Z,12.40
2019-03-16T15:11:34.501Z,12.34
2019-03-16T15:17:40.419Z,12.35
2019-03-16T15:23:46.301Z,12.33
2019-03-16T15:29:52.362Z,12.28
2019-03-16T15:35:58.212Z,12.41
2019-03-16T15:42:04.004Z,12.41
2019-03-16T15:48:09.777Z,12.52
2019-03-16T15:54:15.659Z,12.58
2019-03-16T16:00:21.618Z,12.59
2019-03-16T16:06:27.388Z,12.63
2019-03-16T16:12:33.448Z,12.63
2019-03-16T16:18:39.286Z,12.64
2019-03-16T16:24:45.029Z,12.65
2019-03-16T16:30:50.988Z,12.61
2019-03-16T16:36:56.752Z,12.58
2019-03-16T16:43:02.502Z,12.56
2019-03-16T16:49:08.335Z,12.48
2019-03-16T16:55:15.544Z,12.49
2019-03-16T17:01:29.332Z,12.43
2019-03-16T17:07:28.851Z,12.39
2019-03-16T17:13:34.680Z,12.35
2019-03-16T17:19:40.538Z,12.35
2019-03-16T17:25:46.404Z,12.33
2019-03-16T17:31:52.258Z,12.29
2019-03-16T17:37:58.150Z,12.25
2019-03-16T17:44:04.088Z,12.22
2019-03-16T17:50:10.372Z,12.22
2019-03-16T17:56:16.200Z,12.22
2019-03-16T18:02:21.959Z,12.19
2019-03-16T18:08:27.687Z,12.14
2019-03-16T18:14:37.555Z,12.13
2019-03-16T18:20:43.455Z,12.11
2019-03-16T18:26:49.215Z,12.09
2019-03-16T18:32:55.057Z,12.07
2019-03-16T18:39:00.895Z,12.05
2019-03-16T18:45:08.190Z,12.05
2019-03-16T18:51:13.929Z,12.05
2019-03-16T18:57:20.074Z,12.07
2019-03-16T19:03:25.866Z,12.06
2019-03-16T19:09:33.018Z,12.08
2019-03-16T19:15:38.769Z,12.06
2019-03-16T19:21:44.488Z,12.08
2019-03-16T19:27:50.306Z,12.06
2019-03-16T19:33:56.081Z,12.08
2019-03-16T19:40:01.924Z,12.11
2019-03-16T19:46:07.896Z,12.10
2019-03-16T19:52:13.752Z,12.07
2019-03-16T19:58:19.690Z,12.07
2019-03-16T20:04:35.344Z,12.07
2019-03-16T20:10:33.007Z,12.01
2019-03-16T20:16:38.856Z,11.99
2019-03-16T20:22:44.691Z,12.00
2019-03-16T20:28:50.739Z,11.93
2019-03-16T20:34:56.522Z,11.94
2019-03-16T20:41:02.299Z,11.90
2019-03-16T20:47:08.056Z,11.86
2019-03-16T20:53:13.852Z,11.83
2019-03-16T20:59:19.691Z,11.82
2019-03-16T21:05:25.507Z,11.77
2019-03-16T21:11:31.306Z,11.76
2019-03-16T21:17:37.082Z,11.76
2019-03-16T21:23:42.829Z,11.73
2019-03-16T21:29:48.655Z,11.68
2019-03-16T21:35:54.645Z,11.64
2019-03-16T21:42:00.392Z,11.61
2019-03-16T21:48:06.310Z,11.63
2019-03-16T21:54:12.142Z,11.59
2019-03-16T22:00:18.084Z,11.58
2019-03-16T22:06:23.869Z,11.57
2019-03-16T22:12:29.572Z,11.59
2019-03-16T22:18:35.372Z,11.63
2019-03-16T22:24:42.421Z,11.62
2019-03-16T22:30:48.201Z,11.67
2019-03-16T22:36:54.023Z,11.69
2019-03-16T22:42:59.873Z,11.70
2019-03-16T22:49:05.787Z,11.72
2019-03-16T22:55:11.602Z,11.79
2019-03-16T23:01:17.555Z,11.79
2019-03-16T23:07:23.648Z,11.73
2019-03-16T23:13:29.409Z,11.78
2019-03-16T23:19:35.202Z,11.84
2019-03-16T23:25:40.991Z,11.90
2019-03-16T23:31:46.764Z,11.95
2019-03-16T23:37:52.570Z,11.98
2019-03-16T23:43:58.566Z,11.98
2019-03-16T23:50:04.404Z,12.03
2019-03-16T23:56:10.163Z,12.06
